Time;durP1;ratioP1;P1;durP2;ratioP2;P2;SDS_P1;SDS_P2;PMS_P1;PMS_P2;Temp;Humidity;BMP_temperature;BMP_pressure;BME280_temperature;BME280_humidity;BME280_pressure;Samples;Min_cycle;Max_cycle;Signal;HPM_P1;HPM_P2
2022/08/16 00:01:40;;;;;;;8.38;3.72;;;;;;;26.93;44.42;98997.59;4363331;32;34540;-80
2022/08/16 00:04:08;;;;;;;8.98;4.43;;;;;;;26.90;44.42;98984.41;4377038;32;34653;-78
2022/08/16 00:06:37;;;;;;;8.93;4.32;;;;;;;26.64;44.84;98996.81;4377018;32;33166;-79
2022/08/16 00:09:06;;;;;;;9.82;5.10;;;;;;;25.88;46.60;98996.50;4370350;32;33974;-80
2022/08/16 00:11:39;;;;;;;8.32;4.20;;;;;;;24.41;51.06;99008.41;4375974;32;33982;-79
2022/08/16 00:14:12;;;;;;;11.02;4.90;;;;;;;23.90;53.12;99004.28;4361135;32;34043;-80
2022/08/16 00:16:39;;;;;;;9.32;4.57;;;;;;;24.38;52.16;99009.34;4362596;32;33199;-83
2022/08/16 00:19:30;;;;;;;8.95;4.60;;;;;;;24.65;51.40;99014.91;4373665;32;33632;-80
2022/08/16 00:22:09;;;;;;;7.90;4.20;;;;;;;24.67;51.11;99013.09;4374373;32;33706;-83
2022/08/16 00:24:40;;;;;;;8.35;4.37;;;;;;;25.20;49.63;99012.59;4375871;32;34628;-81
2022/08/16 00:27:11;;;;;;;7.68;4.20;;;;;;;25.24;49.51;99009.81;4375635;32;34287;-80
2022/08/16 00:29:39;;;;;;;9.10;4.80;;;;;;;25.15;49.35;99003.88;4376115;32;33673;-80
2022/08/16 00:32:07;;;;;;;11.75;4.80;;;;;;;24.65;51.04;99012.28;4375414;32;33836;-77
2022/08/16 00:34:37;;;;;;;7.50;4.53;;;;;;;25.06;49.89;99007.66;4376190;32;34722;-82
2022/08/16 00:37:22;;;;;;;8.73;4.37;;;;;;;24.96;50.15;99009.69;4374450;32;33512;-82
2022/08/16 00:39:53;;;;;;;7.97;4.93;;;;;;;24.20;52.35;99007.12;4374873;32;34774;-81
2022/08/16 00:42:27;;;;;;;8.20;4.70;;;;;;;23.60;54.67;99013.72;4375846;32;32638;-82
2022/08/16 00:45:07;;;;;;;8.30;4.22;;;;;;;23.34;55.41;99015.13;4376507;32;34502;-79
2022/08/16 00:47:39;;;;;;;8.27;4.50;;;;;;;22.96;56.16;99025.47;4377515;32;33342;-80
2022/08/16 00:50:10;;;;;;;9.52;4.68;;;;;;;23.04;56.38;99021.84;4363237;32;32725;-79
2022/08/16 00:52:39;;;;;;;16.08;4.95;;;;;;;23.21;55.45;99017.13;4361898;32;34055;-82
2022/08/16 00:55:22;;;;;;;12.88;4.37;;;;;;;23.67;54.04;99016.19;4375965;32;34551;-83
2022/08/16 00:57:54;;;;;;;7.30;4.60;;;;;;;23.77;53.48;99021.31;4363725;32;34101;-79
2022/08/16 01:00:30;;;;;;;8.18;4.47;;;;;;;23.70;53.42;99024.09;4353363;32;34623;-80
2022/08/16 01:03:01;;;;;;;7.37;4.72;;;;;;;23.26;54.68;99025.84;4351723;32;34876;-81
2022/08/16 01:05:30;;;;;;;10.00;4.70;;;;;;;23.58;54.07;99024.31;4364892;32;32676;-80
2022/08/16 01:08:00;;;;;;;10.75;5.20;;;;;;;24.49;51.25;99025.84;4365629;32;33488;-80
2022/08/16 01:10:29;;;;;;;10.20;4.70;;;;;;;24.33;51.37;99032.41;4364424;32;33989;-82
2022/08/16 01:13:05;;;;;;;7.87;4.60;;;;;;;24.02;52.54;99030.47;4377480;32;33881;-79
2022/08/16 01:15:35;;;;;;;9.10;5.28;;;;;;;25.11;49.37;99019.00;4382598;32;34213;-81
2022/08/16 01:18:07;;;;;;;7.37;4.87;;;;;;;23.60;53.48;99027.78;4377855;32;33199;-84
2022/08/16 01:21:01;;;;;;;7.87;4.72;;;;;;;23.02;55.32;99028.91;4365098;32;33683;-79
2022/08/16 01:23:45;;;;;;;8.65;4.57;;;;;;;23.17;54.65;99023.38;4362989;32;33641;-82
2022/08/16 01:26:30;;;;;;;9.95;5.55;;;;;;;22.70;55.85;99033.00;4373764;32;34305;-81
2022/08/16 01:29:07;;;;;;;8.10;5.32;;;;;;;22.54;56.37;99037.62;4364691;32;33695;-80
2022/08/16 01:31:36;;;;;;;;;;;;;;;22.41;57.34;99036.06;4364189;32;33994;-82
2022/08/16 01:34:13;;;;;;;7.12;5.10;;;;;;;22.42;57.61;99033.41;4377013;32;34310;-80
2022/08/16 01:36:58;;;;;;;7.55;4.75;;;;;;;22.68;56.56;99033.00;4374751;32;33971;-79
2022/08/16 01:39:28;;;;;;;9.00;5.10;;;;;;;22.53;56.85;99031.47;4363592;32;33389;-81
2022/08/16 01:41:58;;;;;;;8.85;5.00;;;;;;;22.14;57.61;99028.53;4377873;32;34545;-79
2022/08/16 01:44:27;;;;;;;8.55;5.00;;;;;;;21.92;58.56;99022.72;4364139;32;33497;-83
2022/08/16 01:47:06;;;;;;;8.55;5.03;;;;;;;21.78;58.89;99029.91;4377593;32;33955;-82
2022/08/16 01:49:43;;;;;;;9.52;5.12;;;;;;;21.79;58.96;99037.81;4389141;32;31847;-81
2022/08/16 01:52:32;;;;;;;8.57;5.03;;;;;;;21.75;59.04;99029.94;4377749;32;33740;-80
2022/08/16 01:55:00;;;;;;;7.93;4.87;;;;;;;21.88;58.39;99030.66;4364652;32;34837;-78
2022/08/16 01:57:28;;;;;;;11.57;5.10;;;;;;;22.00;57.81;99030.50;4377285;32;34052;-80
2022/08/16 01:59:59;;;;;;;6.75;5.00;;;;;;;21.83;58.16;99021.94;4377951;32;33562;-81
2022/08/16 02:02:27;;;;;;;11.73;5.70;;;;;;;21.75;58.59;99029.94;4377973;32;33604;-83
2022/08/16 02:04:58;;;;;;;8.73;5.20;;;;;;;21.77;58.42;99026.41;4364250;32;32116;-83
2022/08/16 02:07:26;;;;;;;10.05;5.32;;;;;;;21.65;59.34;99029.19;4361150;32;34113;-84
2022/08/16 02:09:57;;;;;;;9.93;5.70;;;;;;;21.71;59.42;99028.25;4377733;32;32611;-82
2022/08/16 02:12:31;;;;;;;9.93;5.60;;;;;;;21.44;60.14;99034.72;4376955;32;34676;-80
2022/08/16 02:15:21;;;;;;;11.82;5.87;;;;;;;21.17;60.86;99035.00;4377183;32;33860;-81
2022/08/16 02:17:57;;;;;;;8.35;5.30;;;;;;;21.10;60.65;99027.16;4372192;32;33870;-81
2022/08/16 02:20:26;;;;;;;11.18;5.53;;;;;;;21.40;59.45;99024.19;4364144;32;33929;-80
2022/08/16 02:22:55;;;;;;;9.10;6.15;;;;;;;21.43;59.25;99017.16;4363997;32;33785;-82
2022/08/16 02:25:24;;;;;;;9.05;5.15;;;;;;;21.26;59.94;99020.84;4377435;32;33922;-81
2022/08/16 02:28:11;;;;;;;11.68;5.70;;;;;;;21.20;60.35;99026.19;4385705;32;34211;-82
2022/08/16 02:30:44;;;;;;;8.60;5.12;;;;;;;21.40;59.48;99029.47;4376846;32;33080;-83
2022/08/16 02:33:21;;;;;;;9.80;5.97;;;;;;;21.41;59.61;99025.94;4375101;32;33790;-82
2022/08/16 02:36:09;;;;;;;9.07;6.00;;;;;;;21.48;59.54;99020.63;4362432;32;33787;-80
2022/08/16 02:38:41;;;;;;;11.45;5.75;;;;;;;21.47;59.82;99021.53;4376784;32;34385;-83
2022/08/16 02:41:09;;;;;;;8.48;5.57;;;;;;;21.41;60.15;99028.56;4377785;32;34418;-82
2022/08/16 02:43:38;;;;;;;8.85;5.40;;;;;;;21.55;59.63;99024.94;4376586;32;33547;-80
2022/08/16 02:46:08;;;;;;;9.38;5.35;;;;;;;21.48;60.05;99018.87;4377505;32;34601;-80
2022/08/16 02:48:37;;;;;;;10.07;5.78;;;;;;;21.67;58.98;99019.53;4376716;32;34116;-79
2022/08/16 02:51:08;;;;;;;10.98;6.00;;;;;;;21.66;58.97;99019.53;4364094;32;33301;-80
2022/08/16 02:53:44;;;;;;;10.65;5.53;;;;;;;21.68;58.83;99013.34;4377840;32;33417;-78
2022/08/16 02:56:16;;;;;;;9.88;5.75;;;;;;;22.13;57.28;99021.50;4376773;32;34574;-82
2022/08/16 02:58:46;;;;;;;8.88;5.82;;;;;;;22.23;56.61;99021.38;4363526;32;34670;-82
2022/08/16 03:01:20;;;;;;;11.88;5.50;;;;;;;23.11;54.42;99019.06;4376990;32;34161;-82
2022/08/16 03:04:04;;;;;;;12.27;6.18;;;;;;;23.50;53.33;99020.97;4355988;32;34663;-79
2022/08/16 03:06:52;;;;;;;11.00;5.70;;;;;;;23.12;53.81;99017.28;4364867;32;33895;-81
2022/08/16 03:09:25;;;;;;;10.30;6.03;;;;;;;22.48;55.94;99017.47;4376677;32;32939;-79
2022/08/16 03:11:59;;;;;;;7.18;5.10;;;;;;;22.80;54.86;99024.00;4376648;32;33561;-82
2022/08/16 03:14:30;;;;;;;10.90;6.20;;;;;;;22.32;56.41;99024.78;4377244;32;33682;-82
2022/08/16 03:16:58;;;;;;;10.30;5.47;;;;;;;22.06;57.57;99030.41;4377613;32;33694;-81
2022/08/16 03:19:30;;;;;;;11.68;5.25;;;;;;;21.54;59.07;99021.44;4377089;32;34056;-80
2022/08/16 03:22:19;;;;;;;10.38;5.95;;;;;;;21.66;58.84;99023.03;4376692;32;33572;-79
2022/08/16 03:25:00;;;;;;;11.05;5.32;;;;;;;21.41;59.64;99030.34;4377900;32;33860;-79
2022/08/16 03:27:30;;;;;;;9.63;6.10;;;;;;;21.41;59.59;99031.19;4375728;32;34579;-79
2022/08/16 03:30:03;;;;;;;9.80;5.70;;;;;;;21.13;60.57;99040.28;4377691;32;34793;-81
2022/08/16 03:32:46;;;;;;;9.82;5.97;;;;;;;20.93;61.12;99049.25;4376645;32;33592;-79
2022/08/16 03:35:23;;;;;;;10.50;6.20;;;;;;;21.00;61.29;99045.69;4377316;32;33938;-78
2022/08/16 03:38:02;;;;;;;8.88;6.07;;;;;;;20.54;63.23;99051.31;4365434;32;33427;-80
2022/08/16 03:40:33;;;;;;;11.07;5.90;;;;;;;20.69;62.68;99060.03;4377792;32;34123;-79
2022/08/16 03:43:06;;;;;;;9.80;6.15;;;;;;;20.95;61.40;99063.28;4363368;32;34266;-79
2022/08/16 03:45:49;;;;;;;13.00;5.87;;;;;;;21.78;58.76;99059.78;4377158;32;32162;-82
2022/08/16 03:48:22;;;;;;;8.50;5.50;;;;;;;22.49;56.37;99061.47;4376194;32;33726;-81
2022/08/16 03:51:10;;;;;;;11.43;6.62;;;;;;;22.66;55.65;99065.63;4376636;32;34802;-83
2022/08/16 03:53:41;;;;;;;8.90;6.00;;;;;;;22.89;55.19;99066.09;4376818;32;33584;-82
2022/08/16 03:56:09;;;;;;;11.48;6.12;;;;;;;23.03;54.64;99072.94;4377190;32;34403;-82
2022/08/16 03:58:48;;;;;;;8.35;5.28;;;;;;;21.90;57.97;99061.38;4376026;32;33960;-81
2022/08/16 04:01:19;;;;;;;9.98;5.87;;;;;;;21.75;58.84;99064.22;4376509;32;33181;-83
2022/08/16 04:03:47;;;;;;;11.88;5.97;;;;;;;21.62;59.18;99076.69;4376679;32;34460;-82
2022/08/16 04:06:16;;;;;;;14.20;6.18;;;;;;;21.51;59.47;99075.94;4377183;32;34642;-81
2022/08/16 04:08:44;;;;;;;11.32;6.12;;;;;;;21.62;59.26;99074.03;4361786;32;33919;-83
2022/08/16 04:11:11;;;;;;;10.40;6.05;;;;;;;22.55;56.54;99071.91;4376311;32;34770;-79
2022/08/16 04:13:44;;;;;;;8.45;5.57;;;;;;;22.70;55.91;99076.09;4375832;32;33720;-81
2022/08/16 04:16:32;;;;;;;9.40;6.03;;;;;;;23.13;54.56;99077.16;4376877;32;34600;-84
2022/08/16 04:19:03;;;;;;;8.70;5.85;;;;;;;23.15;54.64;99083.28;4379131;32;33901;-80
2022/08/16 04:21:34;;;;;;;10.52;5.93;;;;;;;22.68;56.23;99082.31;4376626;32;35563;-81
2022/08/16 04:24:02;;;;;;;9.73;5.80;;;;;;;22.35;57.35;99076.66;4360612;32;34376;-83
2022/08/16 04:26:36;;;;;;;10.13;5.85;;;;;;;22.80;55.91;99086.50;4376100;32;34332;-80
2022/08/16 04:29:14;;;;;;;10.23;6.65;;;;;;;23.14;55.09;99081.53;4376625;32;34072;-80
2022/08/16 04:31:53;;;;;;;10.77;6.65;;;;;;;22.41;57.23;99087.09;4372792;32;34946;-81
2022/08/16 04:34:29;;;;;;;12.20;6.65;;;;;;;22.13;58.70;99079.53;4363487;32;32352;-82
2022/08/16 04:36:58;;;;;;;11.70;6.53;;;;;;;21.73;59.92;99084.44;4375546;32;33806;-80
2022/08/16 04:39:31;;;;;;;9.38;5.93;;;;;;;21.62;59.94;99076.69;4375744;32;33918;-83
2022/08/16 04:42:16;;;;;;;11.48;6.05;;;;;;;21.59;60.51;99077.59;4375553;32;33897;-84
2022/08/16 04:44:45;;;;;;;9.07;5.82;;;;;;;21.62;60.42;99081.94;4369614;32;31942;-79
2022/08/16 04:47:25;;;;;;;10.73;6.32;;;;;;;21.40;61.04;99090.06;4376245;32;34782;-84
2022/08/16 04:50:03;;;;;;;10.38;6.32;;;;;;;21.26;61.73;99094.59;4375838;32;34681;-83
2022/08/16 04:52:31;;;;;;;12.55;7.65;;;;;;;21.47;60.72;99097.94;4375535;32;34910;-81
2022/08/16 04:55:14;;;;;;;13.00;5.87;;;;;;;21.62;60.16;99095.13;4376883;32;33704;-83
2022/08/16 04:57:43;;;;;;;10.15;5.78;;;;;;;22.32;58.17;99095.16;4374827;32;33855;-80
2022/08/16 05:00:24;;;;;;;8.98;5.35;;;;;;;23.12;55.74;99094.78;4374898;32;34835;-81
2022/08/16 05:03:05;;;;;;;10.07;6.15;;;;;;;23.52;54.25;99085.25;4372850;32;34533;-85
2022/08/16 05:05:37;;;;;;;8.90;6.00;;;;;;;22.40;57.96;99097.69;4374945;32;34404;-83
2022/08/16 05:08:26;;;;;;;10.00;5.80;;;;;;;23.32;55.16;99105.00;4377815;32;33544;-82
2022/08/16 05:11:02;;;;;;;;;;;;;;;23.94;52.98;99091.47;4377645;32;34720;-84
2022/08/16 05:13:33;;;;;;;;;;;;;;;24.45;52.04;99103.56;4374811;32;34329;-83
2022/08/16 05:16:16;;;;;;;10.80;5.62;;;;;;;24.51;51.80;99108.78;4374532;32;32376;-82
2022/08/16 05:18:50;;;;;;;11.52;6.60;;;;;;;24.67;51.34;99111.09;4373804;32;33895;-82
2022/08/16 05:21:19;;;;;;;12.88;6.22;;;;;;;24.15;52.80;99110.44;4375694;32;33717;-81
2022/08/16 05:23:50;;;;;;;10.02;5.80;;;;;;;23.34;54.71;99124.34;4369693;32;34611;-82
2022/08/16 05:26:29;;;;;;;9.40;5.55;;;;;;;23.38;54.85;99134.88;4375429;32;33668;-81
2022/08/16 05:28:58;;;;;;;11.75;5.68;;;;;;;24.03;52.88;99122.16;4375292;32;33798;-81
2022/08/16 05:31:27;;;;;;;8.77;6.35;;;;;;;24.64;51.20;99124.37;4360002;32;33777;-82
2022/08/16 05:34:00;;;;;;;12.43;6.15;;;;;;;24.73;50.98;99119.72;4375097;32;33711;-82
2022/08/16 05:36:31;;;;;;;10.60;6.40;;;;;;;24.80;50.81;99124.87;4374784;32;34528;-83
2022/08/16 05:39:07;;;;;;;10.57;6.43;;;;;;;24.88;50.87;99117.66;4375573;32;34102;-80
2022/08/16 05:41:36;;;;;;;11.20;6.03;;;;;;;23.23;55.51;99128.06;4374727;32;33924;-81
2022/08/16 05:44:14;;;;;;;11.18;6.15;;;;;;;22.92;56.24;99128.56;4377127;32;34052;-82
2022/08/16 05:46:53;;;;;;;13.57;5.57;;;;;;;23.99;53.00;99131.06;4377235;32;34060;-80
2022/08/16 05:49:23;;;;;;;9.95;5.72;;;;;;;23.20;54.88;99129.00;4378382;32;34490;-82
2022/08/16 05:52:05;;;;;;;11.10;5.47;;;;;;;23.52;54.54;99124.91;4376295;32;33708;-85
2022/08/16 05:54:41;;;;;;;11.60;5.37;;;;;;;24.49;51.25;99121.16;4378086;32;34752;-84
2022/08/16 05:57:17;;;;;;;10.63;5.30;;;;;;;24.76;50.17;99126.72;4376491;32;34065;-82
2022/08/16 05:59:46;;;;;;;13.40;6.10;;;;;;;24.96;49.92;99120.97;4375214;32;34689;-85
2022/08/16 06:02:29;;;;;;;12.88;6.78;;;;;;;24.80;50.63;99120.47;4372797;32;34112;-83
2022/08/16 06:05:01;;;;;;;9.38;5.65;;;;;;;24.45;53.09;99122.09;4353287;32;34161;-82
2022/08/16 06:07:30;;;;;;;10.70;6.93;;;;;;;24.38;54.57;99125.81;4378177;32;34312;-82
2022/08/16 06:10:00;;;;;;;9.02;6.15;;;;;;;23.38;58.33;99132.22;4377408;32;33800;-80
2022/08/16 06:12:29;;;;;;;12.43;7.15;;;;;;;23.62;58.53;99123.81;4377401;32;34015;-81
2022/08/16 06:15:01;;;;;;;13.98;7.07;;;;;;;23.51;59.65;99125.81;4375306;32;33794;-81
2022/08/16 06:17:35;;;;;;;10.80;6.85;;;;;;;22.65;62.50;99119.28;4377701;32;33311;-80
2022/08/16 06:20:20;;;;;;;10.75;5.70;;;;;;;23.28;60.91;99115.66;4377763;32;33989;-80
2022/08/16 06:22:56;;;;;;;14.25;7.30;;;;;;;23.93;59.01;99110.00;4374700;32;34039;-81
2022/08/16 06:25:39;;;;;;;11.48;5.87;;;;;;;24.37;59.03;99110.84;4377543;32;34210;-82
2022/08/16 06:28:09;;;;;;;9.07;5.55;;;;;;;24.04;59.79;99102.72;4377911;32;33677;-80
2022/08/16 06:30:44;;;;;;;8.05;4.78;;;;;;;23.10;62.30;99106.25;4365958;32;34643;-81
2022/08/16 06:33:16;;;;;;;8.75;3.80;;;;;;;23.37;62.12;99099.59;4378072;32;34110;-82
2022/08/16 06:35:46;;;;;;;7.15;4.37;;;;;;;23.35;60.25;99094.37;4372990;32;34036;-80
2022/08/16 06:38:15;;;;;;;7.10;3.42;;;;;;;23.02;60.62;99094.94;4377804;32;33120;-80
2022/08/16 06:41:04;;;;;;;6.12;2.92;;;;;;;23.12;58.56;99081.59;4378340;32;33268;-82
2022/08/16 06:43:33;;;;;;;6.40;3.03;;;;;;;23.09;55.63;99078.97;4361316;32;33606;-80
2022/08/16 06:46:04;;;;;;;4.12;2.20;;;;;;;23.44;51.66;99058.97;4374990;32;34431;-80
2022/08/16 06:48:36;;;;;;;4.45;2.53;;;;;;;23.93;50.09;99068.59;4377524;32;33229;-84
2022/08/16 06:51:10;;;;;;;5.93;2.87;;;;;;;24.34;51.49;99073.88;4378101;32;34492;-83
2022/08/16 06:53:41;;;;;;;4.82;2.87;;;;;;;24.06;51.54;99063.87;4368413;32;34724;-79
2022/08/16 06:56:09;;;;;;;4.95;2.95;;;;;;;24.19;52.26;99069.78;4375991;32;34074;-80
2022/08/16 06:58:52;;;;;;;3.90;2.47;;;;;;;24.32;51.85;99067.75;4376860;32;33818;-81
2022/08/16 07:01:21;;;;;;;5.35;3.12;;;;;;;24.18;52.11;99067.16;4375772;32;34230;-80
2022/08/16 07:04:09;;;;;;;4.82;2.45;;;;;;;24.30;52.16;99078.34;4378501;32;34219;-80
2022/08/16 07:06:42;;;;;;;6.40;2.67;;;;;;;24.70;50.44;99080.06;4374171;32;33881;-85
2022/08/16 07:09:13;;;;;;;7.57;3.72;;;;;;;25.14;51.64;99097.56;4376234;32;33807;-81
2022/08/16 07:11:43;;;;;;;9.00;3.75;;;;;;;25.25;55.27;99104.34;4377281;32;32441;-81
2022/08/16 07:14:18;;;;;;;11.75;6.00;;;;;;;25.38;56.13;99111.97;4378913;32;33967;-82
2022/08/16 07:16:56;;;;;;;;;;;;;;;24.58;59.53;99124.53;4377076;32;34257;-81
2022/08/16 07:19:26;;;;;;;9.10;5.87;;;;;;;25.07;59.66;99129.53;4376458;32;33465;-81
2022/08/16 07:22:16;;;;;;;11.25;6.30;;;;;;;25.03;59.52;99142.88;4375633;32;34250;-82
2022/08/16 07:25:08;;;;;;;13.02;7.18;;;;;;;24.46;62.40;99137.09;4378007;32;33701;-81
2022/08/16 07:27:37;;;;;;;10.23;6.72;;;;;;;23.28;69.50;99142.09;4364811;32;34137;-82
2022/08/16 07:30:13;;;;;;;9.18;6.43;;;;;;;23.36;67.98;99143.69;4378377;32;33814;-81
2022/08/16 07:33:02;;;;;;;14.07;6.72;;;;;;;24.31;65.74;99143.59;4367408;32;33871;-81
2022/08/16 07:35:31;;;;;;;12.68;6.20;;;;;;;25.06;62.69;99145.44;4378792;32;33035;-82
2022/08/16 07:38:00;;;;;;;11.48;6.72;;;;;;;23.95;65.55;99145.22;4377331;32;34252;-82
2022/08/16 07:40:30;;;;;;;11.73;6.45;;;;;;;25.02;62.60;99151.75;4377777;32;33494;-83
2022/08/16 07:43:18;;;;;;;11.75;7.55;;;;;;;25.35;61.90;99157.13;4377979;32;33995;-81
2022/08/16 07:45:47;;;;;;;12.25;7.03;;;;;;;22.90;70.90;99173.47;4372345;32;34647;-83
2022/08/16 07:48:20;;;;;;;12.25;7.05;;;;;;;22.69;71.02;99165.88;4364753;32;34213;-82
2022/08/16 07:50:51;;;;;;;11.85;7.30;;;;;;;23.10;69.98;99164.38;4372406;32;33670;-86
2022/08/16 07:53:27;;;;;;;10.35;7.43;;;;;;;23.13;69.24;99159.91;4377749;32;33997;-82
2022/08/16 07:55:58;;;;;;;13.73;7.30;;;;;;;23.43;68.54;99160.31;4377957;32;34705;-83
2022/08/16 07:58:28;;;;;;;9.48;6.93;;;;;;;23.56;67.97;99158.28;4378137;32;34564;-82
2022/08/16 08:01:04;;;;;;;8.68;6.53;;;;;;;23.73;66.85;99155.34;4373566;32;33694;-82
2022/08/16 08:03:42;;;;;;;11.10;5.50;;;;;;;23.74;67.13;99157.97;4377701;32;33872;-82
2022/08/16 08:06:18;;;;;;;13.23;6.30;;;;;;;24.09;62.91;99148.50;4376844;32;34041;-80
2022/08/16 08:08:46;;;;;;;10.63;6.30;;;;;;;24.50;62.96;99157.31;4363860;32;34078;-81
2022/08/16 08:11:19;;;;;;;8.70;5.72;;;;;;;24.47;64.04;99157.41;4378040;32;34127;-81
2022/08/16 08:13:49;;;;;;;10.48;6.12;;;;;;;24.47;61.55;99164.44;4376351;32;33382;-81
2022/08/16 08:16:20;;;;;;;8.45;6.18;;;;;;;24.35;62.74;99162.94;4377215;32;33901;-81
2022/08/16 08:18:48;;;;;;;8.52;6.65;;;;;;;24.47;61.06;99159.16;4376888;32;32314;-82
2022/08/16 08:21:23;;;;;;;11.70;7.07;;;;;;;24.37;62.10;99165.56;4377671;32;33542;-81
2022/08/16 08:23:56;;;;;;;13.60;7.40;;;;;;;24.25;61.08;99171.97;4377822;32;34002;-81
2022/08/16 08:26:24;;;;;;;12.48;7.53;;;;;;;24.43;61.27;99174.22;4376989;32;33909;-81
2022/08/16 08:28:51;;;;;;;14.70;7.20;;;;;;;24.92;60.13;99169.63;4376924;32;34085;-80
2022/08/16 08:31:21;;;;;;;11.60;7.15;;;;;;;25.09;59.38;99179.81;4377308;32;34602;-82
2022/08/16 08:33:48;;;;;;;9.93;6.57;;;;;;;25.33;58.20;99188.13;4375509;32;34308;-80
2022/08/16 08:36:27;;;;;;;11.50;5.62;;;;;;;25.37;56.15;99182.69;4375701;32;34119;-81
2022/08/16 08:39:04;;;;;;;10.80;5.28;;;;;;;25.76;53.66;99181.69;4363619;32;34169;-81
2022/08/16 08:41:41;;;;;;;8.55;4.43;;;;;;;26.44;50.21;99178.00;4376927;32;33729;-80
2022/08/16 08:44:13;;;;;;;8.93;5.15;;;;;;;26.81;48.43;99167.16;4362941;32;34176;-82
2022/08/16 08:46:57;;;;;;;7.20;4.22;;;;;;;28.77;44.82;99163.78;4362935;32;34123;-80
2022/08/16 08:49:29;;;;;;;7.57;4.25;;;;;;;29.92;40.44;99163.44;4375660;32;34129;-80
2022/08/16 08:52:18;;;;;;;7.50;4.60;;;;;;;30.84;38.98;99165.44;4373238;32;33659;-80
2022/08/16 08:55:05;;;;;;;8.57;4.43;;;;;;;29.70;41.68;99162.59;4376287;32;33457;-80
2022/08/16 08:57:46;;;;;;;8.20;4.95;;;;;;;28.52;44.42;99152.34;4377107;32;33926;-81
2022/08/16 09:00:22;;;;;;;7.28;4.80;;;;;;;28.16;44.90;99155.44;4377706;32;33951;-80
2022/08/16 09:02:53;;;;;;;8.60;4.80;;;;;;;28.79;44.69;99153.91;4376296;32;34436;-80
2022/08/16 09:05:26;;;;;;;9.63;5.25;;;;;;;29.32;44.66;99159.78;4371976;32;162431;-80
2022/08/16 09:08:05;;;;;;;7.15;5.05;;;;;;;29.70;43.17;99154.59;4372350;32;34612;-81
2022/08/16 09:10:36;;;;;;;8.02;5.00;;;;;;;28.97;44.47;99151.41;4363029;32;34581;-80
2022/08/16 09:13:07;;;;;;;7.43;5.03;;;;;;;30.44;42.40;99148.63;4376335;32;33365;-81
2022/08/16 09:15:38;;;;;;;6.87;5.20;;;;;;;30.54;42.30;99149.94;4376066;32;33743;-80
2022/08/16 09:18:06;;;;;;;8.23;4.57;;;;;;;29.76;43.29;99143.69;4374406;32;34355;-80
2022/08/16 09:20:54;;;;;;;6.65;3.80;;;;;;;30.88;41.00;99145.63;4368135;32;34618;-80
2022/08/16 09:23:29;;;;;;;5.65;4.00;;;;;;;30.84;38.30;99136.88;4378872;32;33489;-82
2022/08/16 09:26:06;;;;;;;8.20;3.65;;;;;;;31.85;36.82;99125.53;4378916;32;34672;-81
2022/08/16 09:28:54;;;;;;;4.87;3.35;;;;;;;30.70;35.04;99134.88;4379011;32;33716;-81
2022/08/16 09:31:43;;;;;;;5.28;3.42;;;;;;;31.27;34.66;99118.69;4378933;32;34165;-81
2022/08/16 09:34:11;;;;;;;7.55;3.33;;;;;;;30.70;35.69;99118.84;4377800;32;34083;-80
2022/08/16 09:36:45;;;;;;;4.95;3.17;;;;;;;30.66;34.32;99122.59;4377211;32;34448;-80
2022/08/16 09:39:13;;;;;;;5.28;3.30;;;;;;;31.07;33.10;99119.72;4377979;32;34011;-78
2022/08/16 09:41:50;;;;;;;6.37;3.55;;;;;;;31.12;33.89;99120.34;4378794;32;34238;-80
2022/08/16 09:44:24;;;;;;;4.45;3.10;;;;;;;32.28;32.32;99122.34;4379024;32;33689;-81
2022/08/16 09:47:12;;;;;;;12.57;4.85;;;;;;;32.41;31.21;99117.16;4376106;32;34622;-80
2022/08/16 09:49:40;;;;;;;6.05;4.15;;;;;;;31.37;32.52;99119.09;4378383;32;33867;-83
2022/08/16 09:52:09;;;;;;;5.10;3.30;;;;;;;32.85;31.18;99121.84;4376992;32;33798;-80
2022/08/16 09:54:39;;;;;;;5.87;3.85;;;;;;;31.93;31.66;99111.69;4364366;32;33535;-83
2022/08/16 09:57:12;;;;;;;6.75;3.80;;;;;;;32.03;31.16;99109.44;4376482;32;34015;-81
2022/08/16 09:59:39;;;;;;;6.35;4.00;;;;;;;33.12;30.81;99108.66;4375044;32;33910;-81
2022/08/16 10:02:09;;;;;;;6.65;4.10;;;;;;;33.25;30.29;99108.78;4364169;32;34753;-82
2022/08/16 10:04:56;;;;;;;6.43;4.10;;;;;;;33.12;30.32;99102.44;4375485;32;33209;-83
2022/08/16 10:07:26;;;;;;;5.65;3.83;;;;;;;34.22;29.36;99101.03;4377054;32;33863;-81
2022/08/16 10:10:14;;;;;;;6.80;3.90;;;;;;;34.60;28.33;99100.38;4376572;32;34358;-81
2022/08/16 10:13:13;;;;;;;5.60;3.72;;;;;;;33.79;28.15;99098.34;4372037;32;34629;-80
2022/08/16 10:15:45;;;;;;;6.00;3.60;;;;;;;34.61;27.32;99091.31;4373952;32;34320;-78
2022/08/16 10:18:21;;;;;;;5.95;4.00;;;;;;;34.95;27.26;99093.66;4373689;32;33979;-79
2022/08/16 10:21:09;;;;;;;5.70;3.78;;;;;;;34.66;26.24;99094.63;4376801;32;34004;-78
2022/08/16 10:23:39;;;;;;;6.57;3.95;;;;;;;35.04;26.30;99095.69;4364057;32;34160;-77
2022/08/16 10:26:10;;;;;;;6.68;3.83;;;;;;;35.35;25.35;99094.53;4354880;32;32161;-79
2022/08/16 10:28:58;;;;;;;5.07;3.55;;;;;;;35.26;25.31;99091.59;4348483;32;34656;-80
2022/08/16 10:31:26;;;;;;;6.97;3.67;;;;;;;34.43;25.31;99089.88;4347868;32;33887;-80
2022/08/16 10:34:14;;;;;;;6.07;3.53;;;;;;;36.02;24.59;99086.19;4347188;33;34620;-78
2022/08/16 10:37:02;;;;;;;7.18;3.60;;;;;;;34.63;25.72;99086.72;4346178;33;33185;-79
2022/08/16 10:39:30;;;;;;;6.10;3.62;;;;;;;34.32;26.23;99084.31;4347931;33;33631;-79
2022/08/16 10:42:09;;;;;;;7.20;3.80;;;;;;;34.48;25.91;99090.44;4348932;33;34519;-79
2022/08/16 10:44:40;;;;;;;6.57;3.65;;;;;;;34.76;25.41;99086.81;4347991;33;33802;-80
2022/08/16 10:47:10;;;;;;;4.72;3.60;;;;;;;34.72;25.28;99081.75;4349318;33;33483;-80
2022/08/16 10:49:38;;;;;;;9.38;3.70;;;;;;;34.72;25.77;99089.81;4349013;33;33471;-79
2022/08/16 10:52:06;;;;;;;5.40;3.45;;;;;;;34.99;25.15;99079.88;4349253;33;34011;-79
2022/08/16 10:54:45;;;;;;;5.35;3.72;;;;;;;35.34;25.05;99089.22;4343299;33;33902;-80
2022/08/16 10:57:33;;;;;;;7.22;3.65;;;;;;;36.52;22.89;99080.81;4348839;33;33369;-80
2022/08/16 11:00:07;;;;;;;5.25;3.70;;;;;;;36.01;23.40;99078.25;4350347;32;33993;-79
2022/08/16 11:02:48;;;;;;;7.00;3.55;;;;;;;34.55;25.41;99075.59;4352558;32;34697;-79
2022/08/16 11:05:31;;;;;;;5.95;3.70;;;;;;;35.17;24.77;99076.94;4348273;33;34112;-79
2022/08/16 11:08:20;;;;;;;5.80;4.18;;;;;;;35.24;24.80;99068.31;4347988;33;33426;-79
2022/08/16 11:11:05;;;;;;;4.78;3.70;;;;;;;35.70;23.94;99064.28;4348839;33;34248;-80
2022/08/16 11:13:41;;;;;;;5.53;3.65;;;;;;;35.41;24.05;99066.31;4349157;33;34606;-79
2022/08/16 11:16:29;;;;;;;5.40;3.47;;;;;;;35.68;23.51;99065.34;4348862;33;34002;-81
2022/08/16 11:19:16;;;;;;;5.32;4.10;;;;;;;36.66;23.04;99062.78;4348991;32;33646;-79
2022/08/16 11:21:45;;;;;;;6.47;3.42;;;;;;;35.50;24.40;99072.88;4346345;32;33866;-79
2022/08/16 11:24:32;;;;;;;5.87;3.72;;;;;;;35.95;23.47;99062.50;4346264;33;33811;-79
2022/08/16 11:27:09;;;;;;;6.32;3.95;;;;;;;35.86;23.18;99057.78;4363617;32;34018;-81
2022/08/16 11:29:49;;;;;;;4.60;3.37;;;;;;;36.25;22.63;99069.38;4376021;32;34372;-81
2022/08/16 11:32:20;;;;;;;7.07;3.72;;;;;;;35.90;22.55;99070.06;4375390;32;34446;-82
2022/08/16 11:35:00;;;;;;;6.28;3.85;;;;;;;36.77;22.37;99081.72;4359701;32;33879;-79
2022/08/16 11:37:59;;;;;;;5.15;3.70;;;;;;;36.36;23.28;99082.94;4370314;32;34859;-80
2022/08/16 11:40:57;;;;;;;6.28;3.50;;;;;;;36.64;24.83;99086.28;4377525;32;33330;-80
2022/08/16 11:43:36;;;;;;;6.10;2.60;;;;;;;36.46;24.99;99078.59;4376857;32;33623;-81
2022/08/16 11:46:11;;;;;;;3.95;2.83;;;;;;;36.12;24.70;99075.66;4376874;32;34004;-80
2022/08/16 11:48:59;;;;;;;6.97;2.60;;;;;;;35.73;24.75;99084.75;4373581;32;34840;-80
2022/08/16 11:51:27;;;;;;;4.32;2.60;;;;;;;35.68;24.17;99082.38;4377812;32;33588;-81
2022/08/16 11:53:55;;;;;;;4.03;2.53;;;;;;;35.80;24.34;99086.03;4377163;32;34700;-80
2022/08/16 11:56:23;;;;;;;4.82;2.40;;;;;;;36.20;24.17;99089.47;4378135;32;34458;-79
2022/08/16 11:59:11;;;;;;;5.45;2.58;;;;;;;36.18;23.98;99085.13;4377228;32;34788;-80
2022/08/16 12:01:39;;;;;;;4.80;2.30;;;;;;;36.67;23.22;99091.50;4377076;32;33326;-80
2022/08/16 12:04:26;;;;;;;4.25;2.65;;;;;;;37.03;23.38;99092.38;4377221;32;33819;-81
2022/08/16 12:06:53;;;;;;;4.85;2.75;;;;;;;37.04;23.79;99089.56;4376200;32;34095;-79
2022/08/16 12:09:22;;;;;;;4.72;2.72;;;;;;;37.36;23.55;99088.97;4365450;32;34673;-79